Time;durP1;ratioP1;P1;durP2;ratioP2;P2;SDS_P1;SDS_P2;PMS_P1;PMS_P2;Temp;Humidity;BMP_temperature;BMP_pressure;BME280_temperature;BME280_humidity;BME280_pressure;Samples;Min_cycle;Max_cycle;Signal;HPM_P1;HPM_P2
2021/07/01 00:00:00;;;;;;;22.92;12.82;;;21.70;99.90;;;;;;4191176;28;20075;-62
2021/07/01 00:02:03;;;;;;;24.88;12.10;;;21.80;99.90;;;;;;4191011;28;20071;-61
2021/07/01 00:04:04;;;;;;;25.15;12.85;;;21.80;99.90;;;;;;4191198;28;20036;-61
2021/07/01 00:06:06;;;;;;;19.83;12.75;;;21.80;99.90;;;;;;4191320;28;20040;-61
2021/07/01 00:08:07;;;;;;;21.38;11.82;;;21.80;99.90;;;;;;4191404;28;20117;-61
2021/07/01 00:10:27;;;;;;;21.48;12.15;;;21.90;99.90;;;;;;4190574;28;20036;-61
2021/07/01 00:12:28;;;;;;;21.63;12.27;;;21.90;99.90;;;;;;4190774;28;20070;-61
2021/07/01 00:14:30;;;;;;;21.77;11.63;;;21.90;99.90;;;;;;4190594;28;20040;-61
2021/07/01 00:16:31;;;;;;;28.65;12.30;;;21.90;99.90;;;;;;4190750;28;20095;-61
2021/07/01 00:18:32;;;;;;;23.45;11.98;;;21.90;99.90;;;;;;4190757;28;20032;-61
2021/07/01 00:20:33;;;;;;;21.38;11.95;;;21.90;99.90;;;;;;4190658;28;20045;-61
2021/07/01 00:22:35;;;;;;;18.65;11.18;;;21.90;99.90;;;;;;4190188;28;20415;-61
2021/07/01 00:24:36;;;;;;;22.70;11.43;;;21.90;99.90;;;;;;4190875;28;20093;-62
2021/07/01 00:26:37;;;;;;;18.13;11.30;;;21.80;99.90;;;;;;4190539;28;20074;-61
2021/07/01 00:28:38;;;;;;;17.02;11.68;;;21.80;99.90;;;;;;4190742;28;20098;-61
2021/07/01 00:30:40;;;;;;;20.40;12.15;;;21.70;99.90;;;;;;4190026;28;20071;-60
2021/07/01 00:32:41;;;;;;;19.98;11.82;;;21.70;99.90;;;;;;4190217;28;20036;-61
2021/07/01 00:34:42;;;;;;;17.33;11.73;;;21.70;99.90;;;;;;4189949;28;20036;-61
2021/07/01 00:36:43;;;;;;;19.35;11.10;;;21.70;99.90;;;;;;4190538;28;20028;-62
2021/07/01 00:38:47;;;;;;;17.67;11.27;;;21.80;99.90;;;;;;4190323;28;20512;-61
2021/07/01 00:40:48;;;;;;;18.88;9.20;;;21.80;99.90;;;;;;4190473;28;20056;-61
2021/07/01 00:42:49;;;;;;;16.00;8.82;;;21.90;99.90;;;;;;4190236;28;20098;-61
2021/07/01 00:44:50;;;;;;;16.77;8.43;;;22.00;99.90;;;;;;4189762;28;20032;-61
2021/07/01 00:46:51;;;;;;;26.60;18.90;;;22.10;99.90;;;;;;4190373;28;20028;-62
2021/07/01 00:48:53;;;;;;;28.65;17.70;;;22.20;99.90;;;;;;4189874;28;20409;-61
2021/07/01 00:50:54;;;;;;;14.27;8.60;;;22.20;99.90;;;;;;4190276;28;20097;-60
2021/07/01 00:52:56;;;;;;;13.73;6.43;;;22.30;99.90;;;;;;4189731;28;20467;-61
2021/07/01 00:54:57;;;;;;;9.20;4.93;;;22.30;99.90;;;;;;4190082;28;20021;-61
2021/07/01 00:56:58;;;;;;;13.98;4.85;;;22.40;99.90;;;;;;4189589;28;20117;-60
2021/07/01 00:58:59;;;;;;;11.00;3.80;;;22.40;99.90;;;;;;4189761;28;20036;-61
2021/07/01 01:01:06;;;;;;;11.88;3.13;;;22.40;99.90;;;;;;4190397;28;20484;-61
2021/07/01 01:03:07;;;;;;;9.27;2.67;;;22.30;99.90;;;;;;4188152;28;20507;-61
2021/07/01 01:05:09;;;;;;;5.47;1.92;;;22.10;99.90;;;;;;4189703;28;20090;-61
2021/07/01 01:07:10;;;;;;;4.68;1.63;;;22.00;99.90;;;;;;4190140;28;20118;-62
2021/07/01 01:09:11;;;;;;;2.63;1.60;;;21.90;99.90;;;;;;4188243;28;20530;-60
2021/07/01 01:11:13;;;;;;;3.45;1.90;;;21.80;99.90;;;;;;4189336;28;20032;-61
2021/07/01 01:13:23;;;;;;;8.02;2.40;;;21.60;99.90;;;;;;4189611;28;20563;-61
2021/07/01 01:15:27;;;;;;;7.97;2.55;;;21.50;99.90;;;;;;4189506;28;20082;-61
2021/07/01 01:17:28;;;;;;;8.60;3.85;;;21.30;99.90;;;;;;4189364;28;20097;-60
2021/07/01 01:19:29;;;;;;;6.13;3.00;;;21.10;99.90;;;;;;4189367;28;20094;-61
2021/07/01 01:21:30;;;;;;;4.03;2.30;;;20.90;99.90;;;;;;4189418;28;20105;-62
2021/07/01 01:23:32;;;;;;;10.00;3.08;;;20.70;99.90;;;;;;4188791;28;20029;-61
2021/07/01 01:25:33;;;;;;;9.95;2.42;;;20.50;99.90;;;;;;4189801;28;20029;-61
2021/07/01 01:27:35;;;;;;;10.20;2.55;;;20.30;99.90;;;;;;4189261;28;20045;-60
2021/07/01 01:29:36;;;;;;;8.68;3.38;;;20.20;99.90;;;;;;4189348;28;20546;-60
2021/07/01 01:31:37;;;;;;;3.58;2.20;;;20.10;99.90;;;;;;4189113;28;20045;-61
2021/07/01 01:33:39;;;;;;;6.57;3.03;;;19.90;99.90;;;;;;4189623;28;20040;-60
2021/07/01 01:35:40;;;;;;;6.90;2.75;;;19.70;99.90;;;;;;4189347;28;20032;-61
2021/07/01 01:37:41;;;;;;;6.80;2.63;;;19.60;99.90;;;;;;4189084;28;20032;-61
2021/07/01 01:39:48;;;;;;;8.43;2.40;;;19.40;99.90;;;;;;4188422;28;20040;-61
2021/07/01 01:41:49;;;;;;;6.85;3.00;;;19.30;99.90;;;;;;4189444;28;20033;-61
2021/07/01 01:43:50;;;;;;;4.78;2.40;;;19.20;99.90;;;;;;4189197;28;20071;-61
2021/07/01 01:45:52;;;;;;;7.72;2.63;;;19.10;99.90;;;;;;4188980;28;20098;-61
2021/07/01 01:47:53;;;;;;;7.38;2.85;;;19.10;99.90;;;;;;4189643;28;20032;-61
2021/07/01 01:49:54;;;;;;;8.65;2.60;;;19.00;99.90;;;;;;4189039;28;20036;-61
2021/07/01 01:51:55;;;;;;;6.25;2.67;;;19.00;99.90;;;;;;4189592;28;21113;-61
2021/07/01 01:53:57;;;;;;;6.20;2.90;;;19.00;99.90;;;;;;4188723;28;20070;-61
2021/07/01 01:55:58;;;;;;;5.80;2.22;;;19.00;99.90;;;;;;4189486;28;20021;-60
2021/07/01 01:58:00;;;;;;;7.07;2.60;;;19.10;99.90;;;;;;4189122;28;20984;-61
2021/07/01 02:00:03;;;;;;;5.45;2.50;;;19.00;99.90;;;;;;4189086;28;20090;-61
2021/07/01 02:02:04;;;;;;;7.45;2.47;;;19.10;99.90;;;;;;4188360;28;20063;-60
2021/07/01 02:04:05;;;;;;;5.43;2.58;;;19.10;99.90;;;;;;4188966;28;20067;-60
2021/07/01 02:06:08;;;;;;;5.40;2.70;;;19.20;99.90;;;;;;4188813;28;20416;-61
2021/07/01 02:08:10;;;;;;;5.28;2.20;;;19.20;99.90;;;;;;4189088;28;20094;-61
2021/07/01 02:10:25;;;;;;;4.72;2.10;;;19.30;99.90;;;;;;4188807;28;20078;-61
2021/07/01 02:12:27;;;;;;;7.47;2.42;;;19.30;99.90;;;;;;4188727;28;20040;-61
2021/07/01 02:14:28;;;;;;;5.70;2.45;;;19.30;99.90;;;;;;4189035;28;20036;-61
2021/07/01 02:16:29;;;;;;;5.07;2.83;;;19.40;99.90;;;;;;4188927;28;20461;-60
2021/07/01 02:18:30;;;;;;;4.47;2.45;;;19.30;99.90;;;;;;4189191;28;20400;-60
2021/07/01 02:20:32;;;;;;;4.32;2.22;;;19.30;99.90;;;;;;4188808;28;20037;-61
2021/07/01 02:22:33;;;;;;;4.38;2.20;;;19.30;99.90;;;;;;4188819;28;20024;-61
2021/07/01 02:24:34;;;;;;;6.13;2.67;;;19.30;99.90;;;;;;4188964;28;20477;-61
2021/07/01 02:26:36;;;;;;;3.92;2.08;;;19.20;99.90;;;;;;4189253;28;20036;-61
2021/07/01 02:28:37;;;;;;;5.72;2.70;;;19.20;99.90;;;;;;4188306;28;20138;-61
2021/07/01 02:30:38;;;;;;;3.22;2.03;;;19.10;99.90;;;;;;4188912;28;20435;-60
2021/07/01 02:32:40;;;;;;;7.95;2.05;;;19.00;99.90;;;;;;4188781;28;20090;-61
2021/07/01 02:34:41;;;;;;;4.78;3.05;;;18.90;99.90;;;;;;4188833;28;20102;-61
2021/07/01 02:36:42;;;;;;;4.53;2.53;;;18.90;99.90;;;;;;4188700;28;20117;-61
2021/07/01 02:38:43;;;;;;;3.33;2.00;;;18.90;99.90;;;;;;4189384;28;20040;-61
2021/07/01 02:40:44;;;;;;;4.00;2.10;;;18.90;99.90;;;;;;4188449;28;20040;-61
2021/07/01 02:42:45;;;;;;;4.68;2.70;;;18.90;99.90;;;;;;4188594;28;20038;-61
2021/07/01 02:44:46;;;;;;;5.90;2.70;;;18.90;99.90;;;;;;4188827;28;20032;-61
2021/07/01 02:46:47;;;;;;;5.72;2.97;;;18.80;99.90;;;;;;4188751;28;20029;-61
2021/07/01 02:48:50;;;;;;;3.80;2.80;;;18.60;99.90;;;;;;4190489;28;20118;-61
2021/07/01 02:50:51;;;;;;;4.95;2.65;;;18.30;99.90;;;;;;4191684;28;20036;-61
2021/07/01 02:52:52;;;;;;;6.45;2.95;;;18.20;99.90;;;;;;4191885;28;20086;-62
2021/07/01 02:54:53;;;;;;;8.90;3.55;;;18.00;99.90;;;;;;4191475;28;20369;-62
2021/07/01 02:56:54;;;;;;;7.45;3.63;;;17.90;99.90;;;;;;4191776;28;20028;-61
2021/07/01 02:58:55;;;;;;;9.00;4.10;;;17.90;99.90;;;;;;4191642;28;20049;-61
2021/07/01 03:00:57;;;;;;;7.88;4.47;;;17.80;99.90;;;;;;4192288;28;20033;-60
2021/07/01 03:02:58;;;;;;;7.88;3.92;;;17.90;99.90;;;;;;4191435;28;20890;-60
2021/07/01 03:04:59;;;;;;;7.03;3.80;;;17.90;99.90;;;;;;4192301;28;20040;-60
2021/07/01 03:07:00;;;;;;;5.68;3.97;;;18.10;99.90;;;;;;4192085;28;20037;-61
2021/07/01 03:09:02;;;;;;;6.03;3.38;;;18.20;99.90;;;;;;4191853;28;20049;-61
2021/07/01 03:11:03;;;;;;;5.40;3.78;;;18.30;99.90;;;;;;4191527;28;20141;-62
2021/07/01 03:13:05;;;;;;;5.18;2.95;;;18.30;99.90;;;;;;4191536;28;20455;-62
2021/07/01 03:15:06;;;;;;;5.53;3.15;;;18.40;99.90;;;;;;4191632;28;20036;-61
2021/07/01 03:17:07;;;;;;;7.82;3.10;;;18.40;99.90;;;;;;4191222;28;20093;-61
2021/07/01 03:19:08;;;;;;;5.18;3.50;;;18.50;99.90;;;;;;4191671;28;20079;-61
2021/07/01 03:21:09;;;;;;;7.22;4.03;;;18.50;99.90;;;;;;4191543;28;20032;-61
2021/07/01 03:23:11;;;;;;;9.10;4.00;;;18.50;99.90;;;;;;4191206;28;20067;-61
2021/07/01 03:25:12;;;;;;;6.38;4.25;;;18.40;99.90;;;;;;4190959;28;20048;-61
2021/07/01 03:27:13;;;;;;;9.43;3.70;;;18.50;99.90;;;;;;4191481;28;20036;-61
2021/07/01 03:29:14;;;;;;;8.70;4.10;;;18.50;99.90;;;;;;4190845;28;20048;-61
2021/07/01 03:31:15;;;;;;;4.43;3.15;;;18.50;99.90;;;;;;4190667;28;20044;-61
2021/07/01 03:33:16;;;;;;;8.43;3.28;;;18.40;99.90;;;;;;4191113;28;20024;-61
2021/07/01 03:35:18;;;;;;;6.32;3.58;;;18.40;99.90;;;;;;4191247;28;20024;-61
2021/07/01 03:37:19;;;;;;;4.25;3.50;;;18.40;99.90;;;;;;4191077;28;20090;-61
2021/07/01 03:39:20;;;;;;;4.68;3.08;;;18.30;99.90;;;;;;4191119;28;20029;-61
2021/07/01 03:41:21;;;;;;;9.65;4.13;;;18.30;99.90;;;;;;4190456;28;20070;-61
2021/07/01 03:43:22;;;;;;;7.47;3.60;;;18.30;99.90;;;;;;4190787;28;20040;-62
2021/07/01 03:45:23;;;;;;;4.40;3.45;;;18.30;99.90;;;;;;4191396;28;20052;-62
2021/07/01 03:47:24;;;;;;;7.65;3.92;;;18.20;99.90;;;;;;4191037;28;20369;-62
2021/07/01 03:49:26;;;;;;;5.00;3.85;;;18.20;99.90;;;;;;4190799;28;20074;-62
2021/07/01 03:51:27;;;;;;;7.38;3.80;;;18.20;99.90;;;;;;4190270;28;20636;-62
2021/07/01 03:53:28;;;;;;;5.22;3.25;;;18.20;99.90;;;;;;4190817;28;20044;-62
2021/07/01 03:55:29;;;;;;;9.80;4.55;;;18.10;99.90;;;;;;4190826;28;20078;-62
2021/07/01 03:57:30;;;;;;;3.97;3.42;;;18.10;99.90;;;;;;4189304;28;20066;-62
2021/07/01 03:59:32;;;;;;;6.43;4.28;;;18.00;99.90;;;;;;4189858;28;20029;-62
2021/07/01 04:01:33;;;;;;;6.13;3.58;;;18.00;99.90;;;;;;4189861;28;20067;-62
2021/07/01 04:03:34;;;;;;;4.90;3.00;;;18.00;99.90;;;;;;4190117;28;20561;-62
2021/07/01 04:05:35;;;;;;;5.97;3.15;;;18.00;99.90;;;;;;4191136;28;20477;-61
2021/07/01 04:07:37;;;;;;;5.35;2.80;;;18.00;99.90;;;;;;4190629;28;20082;-61
2021/07/01 04:09:38;;;;;;;3.10;2.40;;;18.10;99.90;;;;;;4190526;28;20553;-61
2021/07/01 04:11:39;;;;;;;4.53;2.15;;;18.10;99.90;;;;;;4189764;28;20097;-61
2021/07/01 04:13:40;;;;;;;3.28;2.20;;;18.20;99.90;;;;;;4190640;28;20086;-61
2021/07/01 04:15:41;;;;;;;3.28;2.40;;;18.20;99.90;;;;;;4190254;28;20510;-61
2021/07/01 04:17:42;;;;;;;2.92;2.33;;;18.20;99.90;;;;;;4190584;28;20028;-61
2021/07/01 04:19:44;;;;;;;5.18;2.08;;;18.20;99.90;;;;;;4190324;28;20032;-61
2021/07/01 04:21:45;;;;;;;4.95;2.42;;;18.20;99.90;;;;;;4189352;28;20044;-61
2021/07/01 04:23:46;;;;;;;4.10;2.55;;;18.10;99.90;;;;;;4189935;28;20098;-61
2021/07/01 04:25:50;;;;;;;3.35;2.17;;;18.10;99.90;;;;;;4190139;28;20085;-61
2021/07/01 04:27:51;;;;;;;6.43;2.50;;;18.10;99.90;;;;;;4190434;28;20030;-62
2021/07/01 04:29:53;;;;;;;3.33;2.35;;;18.10;99.90;;;;;;4189079;28;20110;-61
2021/07/01 04:31:54;;;;;;;4.28;2.50;;;18.10;99.90;;;;;;4190557;28;20439;-61
2021/07/01 04:33:55;;;;;;;5.13;2.58;;;18.00;99.90;;;;;;4189242;28;20033;-60
2021/07/01 04:35:57;;;;;;;3.55;2.55;;;18.10;99.90;;;;;;4190406;28;20496;-60
2021/07/01 04:37:58;;;;;;;9.00;2.50;;;18.10;99.90;;;;;;4189655;28;20029;-60
2021/07/01 04:40:00;;;;;;;5.47;2.80;;;18.20;99.90;;;;;;4190253;28;20075;-61
2021/07/01 04:42:02;;;;;;;6.22;3.00;;;18.30;99.90;;;;;;4189548;28;20054;-61
2021/07/01 04:44:04;;;;;;;8.00;3.58;;;18.30;99.90;;;;;;4190303;28;20029;-62
2021/07/01 04:46:05;;;;;;;4.70;2.97;;;18.30;99.90;;;;;;4189820;28;20028;-62
2021/07/01 04:48:07;;;;;;;6.72;2.97;;;18.40;99.90;;;;;;4188780;28;20044;-62
2021/07/01 04:50:09;;;;;;;5.70;3.15;;;18.50;99.90;;;;;;4188870;28;20047;-62
2021/07/01 04:52:10;;;;;;;4.00;3.00;;;18.60;99.90;;;;;;4189660;28;20826;-62
2021/07/01 04:54:12;;;;;;;5.90;3.95;;;18.80;99.90;;;;;;4189037;28;20040;-62
2021/07/01 04:56:13;;;;;;;3.03;2.58;;;19.00;99.90;;;;;;4189604;28;20516;-62
2021/07/01 04:58:14;;;;;;;5.15;2.70;;;19.00;99.90;;;;;;4189918;28;20165;-62
2021/07/01 05:00:16;;;;;;;4.55;2.90;;;19.00;99.90;;;;;;4188816;28;20074;-68
2021/07/01 05:02:17;;;;;;;7.18;2.67;;;19.00;99.90;;;;;;4186528;28;20037;-61
2021/07/01 05:04:18;;;;;;;5.95;2.70;;;19.10;99.90;;;;;;4171892;28;20083;-61
2021/07/01 05:06:19;;;;;;;7.50;2.78;;;19.20;99.90;;;;;;4172810;28;20090;-61
2021/07/01 05:08:20;;;;;;;7.22;2.15;;;19.30;99.90;;;;;;4172882;28;20473;-61
2021/07/01 05:10:21;;;;;;;3.25;2.35;;;19.30;99.90;;;;;;4172967;28;20041;-62
2021/07/01 05:12:22;;;;;;;3.80;2.33;;;19.40;99.90;;;;;;4171851;28;20045;-60
2021/07/01 05:14:25;;;;;;;5.82;2.30;;;19.60;99.90;;;;;;4173129;28;20099;-62
2021/07/01 05:16:28;;;;;;;4.95;2.83;;;19.80;99.90;;;;;;4172476;28;20033;-61
2021/07/01 05:18:29;;;;;;;5.82;2.40;;;19.90;99.90;;;;;;4172086;28;20033;-63
2021/07/01 05:20:30;;;;;;;5.00;2.08;;;20.00;99.90;;;;;;4185465;28;20097;-60
2021/07/01 05:22:32;;;;;;;2.38;1.80;;;20.30;99.90;;;;;;4205527;28;20086;-59
2021/07/01 05:24:33;;;;;;;2.65;2.22;;;20.50;99.90;;;;;;4206068;28;20089;-60
2021/07/01 05:26:34;;;;;;;2.05;1.65;;;20.80;99.90;;;;;;4204302;28;20028;-61
2021/07/01 05:28:36;;;;;;;4.88;2.28;;;21.00;99.90;;;;;;4187350;28;20025;-61
2021/07/01 05:30:37;;;;;;;4.72;1.75;;;21.10;99.90;;;;;;4188508;28;20064;-61
2021/07/01 05:32:38;;;;;;;3.78;2.05;;;21.10;99.90;;;;;;4188758;28;20090;-61
2021/07/01 05:34:40;;;;;;;3.58;1.90;;;21.10;99.90;;;;;;4187334;28;20907;-61
2021/07/01 05:36:41;;;;;;;4.95;1.60;;;21.10;99.90;;;;;;4188687;28;20594;-61
2021/07/01 05:38:42;;;;;;;2.97;1.63;;;21.30;99.90;;;;;;4187381;28;20036;-61
2021/07/01 05:40:44;;;;;;;3.55;2.03;;;21.50;99.90;;;;;;4189525;28;20510;-62
2021/07/01 05:42:45;;;;;;;2.08;1.58;;;21.80;99.90;;;;;;4188559;28;20078;-61
2021/07/01 05:44:46;;;;;;;3.70;1.75;;;22.10;99.90;;;;;;4189477;28;20157;-61
2021/07/01 05:46:47;;;;;;;4.60;1.60;;;22.30;99.90;;;;;;4188468;28;20036;-62
2021/07/01 05:48:48;;;;;;;2.40;1.30;;;22.20;99.90;;;;;;4189099;28;20082;-61
2021/07/01 05:51:07;;;;;;;3.33;1.98;;;22.30;99.90;;;;;;4187228;28;20492;-61
2021/07/01 05:53:10;;;;;;;1.58;1.35;;;22.80;99.90;;;;;;4188519;28;20431;-61
2021/07/01 05:55:12;;;;;;;2.13;1.58;;;22.90;99.90;;;;;;4188243;28;20379;-61
2021/07/01 05:57:13;;;;;;;4.18;1.67;;;23.10;99.90;;;;;;4188045;28;20089;-62
2021/07/01 05:59:14;;;;;;;4.22;1.77;;;23.30;99.90;;;;;;4188869;28;20033;-61
2021/07/01 06:01:15;;;;;;;4.18;1.73;;;23.50;99.90;;;;;;4188524;28;20032;-61
2021/07/01 06:03:16;;;;;;;1.73;1.55;;;23.60;99.90;;;;;;4188709;28;20087;-61
2021/07/01 06:05:18;;;;;;;4.35;1.60;;;23.60;99.90;;;;;;4188641;28;20552;-61
2021/07/01 06:07:26;;;;;;;1.90;1.50;;;23.80;99.90;;;;;;4188843;28;20419;-61
2021/07/01 06:09:28;;;;;;;3.17;1.50;;;23.70;99.90;;;;;;4188469;28;20036;-62
2021/07/01 06:11:30;;;;;;;2.85;1.30;;;23.80;99.90;;;;;;4188843;28;20036;-61
2021/07/01 06:13:34;;;;;;;4.28;1.40;;;23.70;99.90;;;;;;4187929;28;20062;-62
2021/07/01 06:15:36;;;;;;;2.10;1.30;;;23.80;99.90;;;;;;4188446;28;20040;-62
2021/07/01 06:17:38;;;;;;;3.63;1.48;;;24.20;99.90;;;;;;4187765;28;20105;-62
2021/07/01 06:19:39;;;;;;;2.88;1.67;;;24.50;99.90;;;;;;4188534;28;20522;-62
2021/07/01 06:21:41;;;;;;;4.05;1.65;;;24.80;99.90;;;;;;4187427;28;20032;-62
2021/07/01 06:23:44;;;;;;;3.78;1.52;;;25.30;99.90;;;;;;4188737;28;20446;-62
2021/07/01 06:25:49;;;;;;;3.97;1.20;;;25.10;99.90;;;;;;4187855;28;20097;-61
2021/07/01 06:27:50;;;;;;;2.35;1.48;;;24.80;99.90;;;;;;4188663;28;20032;-61
2021/07/01 06:29:53;;;;;;;2.63;1.25;;;24.90;99.90;;;;;;4188465;28;20037;-62
2021/07/01 06:31:54;;;;;;;6.82;1.60;;;24.90;99.90;;;;;;4188337;28;20098;-61
2021/07/01 06:33:55;;;;;;;3.70;1.30;;;25.30;99.90;;;;;;4188020;28;20024;-62
2021/07/01 06:35:57;;;;;;;1.70;1.20;;;25.30;99.90;;;;;;4188166;28;20090;-61
2021/07/01 06:38:07;;;;;;;2.97;1.20;;;25.00;99.90;;;;;;4188946;28;20158;-62
2021/07/01 06:40:13;;;;;;;2.15;1.15;;;24.90;99.90;;;;;;4188483;28;20040;-62
2021/07/01 06:42:18;;;;;;;2.63;1.35;;;25.10;99.90;;;;;;4188758;28;20038;-62
2021/07/01 06:44:21;;;;;;;3.40;1.20;;;25.60;99.90;;;;;;4188003;28;20021;-62
2021/07/01 06:46:29;;;;;;;3.55;1.38;;;25.70;99.90;;;;;;4187791;28;20082;-62
2021/07/01 06:48:31;;;;;;;3.42;1.20;;;25.50;99.90;;;;;;4187925;28;20053;-61
2021/07/01 06:50:32;;;;;;;3.58;1.23;;;25.30;99.90;;;;;;4186627;28;20041;-62
2021/07/01 06:52:33;;;;;;;4.28;1.30;;;25.10;99.90;;;;;;4187222;28;20921;-62
2021/07/01 06:54:37;;;;;;;2.72;1.00;;;25.20;99.90;;;;;;4188110;28;20078;-62
2021/07/01 06:56:40;;;;;;;2.80;1.00;;;25.50;99.90;;;;;;4187604;28;20538;-62
2021/07/01 06:58:42;;;;;;;2.28;1.10;;;25.20;99.90;;;;;;4187830;28;20098;-62
2021/07/01 07:00:44;;;;;;;6.80;1.38;;;24.80;99.90;;;;;;4187655;28;20041;-61
2021/07/01 07:02:46;;;;;;;1.85;1.52;;;24.50;99.90;;;;;;4188715;28;20082;-61
2021/07/01 07:04:48;;;;;;;1.67;1.08;;;24.50;99.90;;;;;;4187602;28;20045;-61
2021/07/01 07:06:49;;;;;;;3.00;1.30;;;24.50;99.90;;;;;;4188211;28;20040;-61
2021/07/01 07:08:50;;;;;;;3.50;1.33;;;24.50;99.90;;;;;;4188399;28;20106;-61
2021/07/01 07:10:51;;;;;;;4.50;1.38;;;24.70;99.90;;;;;;4188138;28;20546;-61
2021/07/01 07:12:56;;;;;;;5.75;1.60;;;25.10;99.90;;;;;;4186420;28;20077;-61
2021/07/01 07:14:58;;;;;;;2.25;1.33;;;25.30;99.90;;;;;;4186879;28;20940;-62
2021/07/01 07:17:00;;;;;;;4.32;1.60;;;25.60;99.90;;;;;;4188430;28;20033;-62
2021/07/01 07:19:03;;;;;;;1.75;1.30;;;26.00;99.90;;;;;;4188222;28;20082;-61
2021/07/01 07:21:08;;;;;;;3.25;1.40;;;26.20;99.90;;;;;;4188007;28;20431;-62
2021/07/01 07:23:14;;;;;;;1.85;1.30;;;26.30;99.90;;;;;;4186806;28;20067;-62
2021/07/01 07:25:15;;;;;;;1.67;1.40;;;26.50;99.90;;;;;;4187481;28;20113;-61
2021/07/01 07:27:19;;;;;;;6.03;2.22;;;26.60;99.90;;;;;;4187834;28;20040;-61
2021/07/01 07:29:22;;;;;;;2.20;2.00;;;26.90;99.90;;;;;;4188324;28;20066;-61
2021/07/01 07:31:31;;;;;;;5.43;1.63;;;26.90;99.90;;;;;;4187524;28;20032;-61
2021/07/01 07:33:33;;;;;;;5.45;1.10;;;27.20;99.90;;;;;;4187683;28;20055;-62
2021/07/01 07:35:35;;;;;;;4.05;1.15;;;27.50;99.90;;;;;;4188989;28;20567;-62
2021/07/01 07:37:37;;;;;;;4.22;1.38;;;27.20;99.80;;;;;;4191079;28;20016;-61
2021/07/01 07:39:38;;;;;;;3.67;1.55;;;27.20;99.80;;;;;;4190775;28;20032;-61
2021/07/01 07:41:41;;;;;;;3.58;1.33;;;27.00;99.50;;;;;;4191254;28;20078;-61
2021/07/01 07:43:44;;;;;;;1.45;1.08;;;26.80;99.50;;;;;;4190338;28;20407;-60
2021/07/01 07:45:47;;;;;;;1.80;1.33;;;26.80;99.40;;;;;;4173256;28;20037;-60
2021/07/01 07:47:48;;;;;;;1.92;1.20;;;26.70;99.60;;;;;;4190514;28;20070;-60
2021/07/01 07:49:49;;;;;;;2.50;1.13;;;26.70;99.80;;;;;;4190416;28;20114;-61
2021/07/01 07:51:51;;;;;;;2.67;1.33;;;26.70;99.70;;;;;;4190127;28;20036;-62
2021/07/01 07:53:57;;;;;;;2.35;1.42;;;26.80;99.70;;;;;;4190091;28;20025;-60
2021/07/01 07:56:04;;;;;;;3.13;1.40;;;26.70;99.20;;;;;;4190195;28;20037;-61
2021/07/01 07:58:06;;;;;;;5.13;2.00;;;26.60;99.30;;;;;;4188669;28;20032;-62
2021/07/01 08:00:08;;;;;;;7.90;1.88;;;26.60;99.50;;;;;;4190257;28;20571;-62
2021/07/01 08:02:40;;;;;;;2.83;1.45;;;26.70;99.20;;;;;;4190104;28;20041;-62
2021/07/01 08:04:41;;;;;;;2.95;1.33;;;26.60;97.80;;;;;;4190541;28;20078;-62
2021/07/01 08:06:44;;;;;;;4.75;1.70;;;26.50;98.50;;;;;;4190395;28;20150;-62
2021/07/01 08:08:45;;;;;;;1.38;1.23;;;26.70;98.70;;;;;;4191111;28;20040;-61
2021/07/01 08:10:48;;;;;;;5.22;1.80;;;27.00;99.00;;;;;;4190616;28;20464;-61
2021/07/01 08:12:50;;;;;;;5.03;1.52;;;27.20;98.50;;;;;;4190300;28;20025;-61
2021/07/01 08:14:52;;;;;;;2.40;1.25;;;27.20;98.20;;;;;;4188458;28;20094;-61
2021/07/01 08:16:53;;;;;;;1.75;1.20;;;27.10;97.70;;;;;;4190442;28;20037;-61
2021/07/01 08:18:55;;;;;;;1.77;1.48;;;27.20;97.60;;;;;;4189861;28;20025;-61
2021/07/01 08:20:57;;;;;;;3.63;1.52;;;27.30;97.30;;;;;;4190116;28;20109;-61
2021/07/01 08:22:58;;;;;;;1.77;1.30;;;27.20;96.70;;;;;;4189351;28;20037;-61
2021/07/01 08:24:59;;;;;;;2.90;1.42;;;27.00;96.40;;;;;;4189939;28;20102;-61
2021/07/01 08:27:01;;;;;;;2.50;1.05;;;27.10;96.40;;;;;;4189649;28;20045;-61
2021/07/01 08:29:02;;;;;;;3.40;1.33;;;27.20;96.40;;;;;;4190345;28;20024;-61
2021/07/01 08:31:09;;;;;;;2.55;1.48;;;27.30;96.10;;;;;;4189511;28;20052;-61
2021/07/01 08:33:11;;;;;;;2.65;1.25;;;27.20;95.10;;;;;;4189760;28;20048;-61
2021/07/01 08:35:14;;;;;;;3.83;1.38;;;27.10;95.40;;;;;;4189997;28;20130;-61
2021/07/01 08:37:21;;;;;;;1.95;1.63;;;27.20;95.40;;;;;;4189473;28;20451;-61
2021/07/01 08:39:22;;;;;;;6.25;1.23;;;27.20;95.20;;;;;;4190307;28;20020;-62
2021/07/01 08:41:26;;;;;;;2.15;1.02;;;27.20;95.20;;;;;;4189592;28;20029;-61
2021/07/01 08:43:55;;;;;;;4.70;1.52;;;27.20;95.30;;;;;;4189609;28;20070;-61
2021/07/01 08:46:12;;;;;;;1.13;1.05;;;27.00;95.30;;;;;;4189647;28;20049;-61
2021/07/01 08:48:24;;;;;;;4.88;1.63;;;27.10;95.10;;;;;;4189507;28;20094;-61
2021/07/01 08:50:30;;;;;;;1.70;1.20;;;27.10;95.70;;;;;;4189622;28;20079;-61
2021/07/01 08:52:46;;;;;;;1.58;1.48;;;27.20;95.70;;;;;;4189148;28;20505;-62
2021/07/01 08:54:48;;;;;;;3.58;1.75;;;27.20;95.10;;;;;;4189999;28;20040;-61
2021/07/01 08:56:50;;;;;;;3.22;1.77;;;27.20;95.60;;;;;;4189521;28;20036;-61
2021/07/01 08:59:00;;;;;;;4.00;1.35;;;27.30;95.80;;;;;;4189308;28;20477;-61
2021/07/01 09:01:03;;;;;;;3.88;1.63;;;27.30;95.60;;;;;;4189056;28;20040;-61
2021/07/01 09:03:07;;;;;;;2.70;2.05;;;27.10;95.70;;;;;;4189312;28;20098;-61
2021/07/01 09:05:17;;;;;;;5.35;2.13;;;26.80;96.00;;;;;;4189673;28;20074;-61
2021/07/01 09:07:24;;;;;;;4.53;1.90;;;26.90;96.40;;;;;;4189245;28;20073;-62
2021/07/01 09:09:32;;;;;;;2.40;1.50;;;26.80;96.90;;;;;;4190158;28;20025;-61
2021/07/01 09:11:39;;;;;;;7.10;1.65;;;26.70;96.70;;;;;;4189028;28;20180;-62
2021/07/01 09:13:46;;;;;;;5.43;2.28;;;26.60;96.90;;;;;;4189419;28;20074;-62
2021/07/01 09:15:49;;;;;;;4.18;2.75;;;26.70;97.10;;;;;;4189202;28;20044;-61
2021/07/01 09:17:52;;;;;;;3.20;1.70;;;26.70;97.00;;;;;;4189232;28;20455;-62
2021/07/01 09:19:58;;;;;;;4.55;2.15;;;26.60;97.20;;;;;;4188953;28;20480;-63
2021/07/01 09:22:01;;;;;;;8.48;1.67;;;26.60;97.10;;;;;;4189036;28;20040;-62
2021/07/01 09:24:04;;;;;;;3.67;1.73;;;26.70;97.10;;;;;;4188469;28;20500;-62
2021/07/01 09:26:08;;;;;;;7.65;2.08;;;26.70;97.10;;;;;;4189284;28;20099;-61
2021/07/01 09:28:09;;;;;;;2.72;1.90;;;26.60;97.00;;;;;;4188412;28;20049;-62
2021/07/01 09:30:15;;;;;;;2.40;2.20;;;26.70;97.20;;;;;;4188867;28;20041;-62
2021/07/01 09:32:19;;;;;;;5.80;2.35;;;26.90;97.20;;;;;;4188409;28;20052;-62
2021/07/01 09:34:20;;;;;;;4.18;2.10;;;27.10;97.10;;;;;;4189397;28;20025;-62
2021/07/01 09:36:24;;;;;;;4.22;2.05;;;27.10;97.00;;;;;;4188390;28;20040;-60
2021/07/01 09:38:28;;;;;;;3.20;1.77;;;27.20;97.10;;;;;;4189243;28;20078;-61
2021/07/01 09:40:29;;;;;;;3.35;1.60;;;27.20;97.10;;;;;;4188903;28;20036;-61
2021/07/01 09:42:33;;;;;;;6.28;2.13;;;27.40;97.00;;;;;;4188968;28;20021;-61
2021/07/01 09:44:37;;;;;;;5.15;2.58;;;27.40;97.00;;;;;;4188582;28;20534;-61
2021/07/01 09:46:40;;;;;;;3.35;1.88;;;27.50;96.90;;;;;;4188536;28;20020;-62
2021/07/01 09:48:47;;;;;;;4.75;2.22;;;27.50;96.70;;;;;;4188177;28;20078;-61
2021/07/01 09:50:49;;;;;;;3.92;2.10;;;27.40;96.90;;;;;;4188486;28;20066;-61
2021/07/01 09:52:55;;;;;;;7.38;2.35;;;27.20;97.10;;;;;;4188581;28;20086;-61
2021/07/01 09:55:00;;;;;;;4.03;2.47;;;27.40;97.20;;;;;;4188939;28;20016;-61
2021/07/01 09:57:17;;;;;;;3.38;2.05;;;27.40;97.30;;;;;;4188114;28;20036;-62
2021/07/01 09:59:26;;;;;;;5.80;2.03;;;27.20;97.10;;;;;;4188184;28;20453;-61
2021/07/01 10:01:37;;;;;;;2.85;1.83;;;27.30;97.10;;;;;;4188453;28;20468;-61
2021/07/01 10:03:58;;;;;;;6.95;2.33;;;27.50;97.40;;;;;;4188188;28;20153;-62
2021/07/01 10:06:16;;;;;;;5.50;2.33;;;27.60;97.00;;;;;;4188177;28;20090;-61
2021/07/01 10:08:17;;;;;;;5.40;2.58;;;27.60;96.40;;;;;;4189140;28;20041;-61
2021/07/01 10:10:21;;;;;;;2.47;1.73;;;27.40;97.10;;;;;;4188702;28;20476;-61
2021/07/01 10:12:27;;;;;;;5.55;2.08;;;27.50;97.20;;;;;;4188526;28;20032;-62
2021/07/01 10:14:39;;;;;;;3.75;2.25;;;27.20;97.20;;;;;;4188351;28;20028;-61
2021/07/01 10:16:40;;;;;;;3.70;2.13;;;27.00;97.30;;;;;;4188714;28;20093;-62
2021/07/01 10:18:43;;;;;;;5.55;2.30;;;26.90;97.70;;;;;;4188346;28;20098;-61
2021/07/01 10:20:49;;;;;;;3.90;2.58;;;26.90;98.10;;;;;;4188061;28;20106;-61
2021/07/01 10:22:51;;;;;;;5.57;2.90;;;26.90;98.30;;;;;;4188635;28;20110;-61
2021/07/01 10:25:00;;;;;;;4.68;2.35;;;26.80;98.40;;;;;;4188422;28;20029;-61
2021/07/01 10:27:03;;;;;;;5.00;2.65;;;26.80;98.70;;;;;;4188556;28;20094;-61
2021/07/01 10:29:04;;;;;;;5.70;2.13;;;26.70;98.90;;;;;;4187858;28;20044;-61
2021/07/01 10:31:12;;;;;;;4.00;2.33;;;26.70;98.90;;;;;;4188453;28;20048;-62
2021/07/01 10:33:31;;;;;;;5.88;2.20;;;26.80;98.70;;;;;;4187848;28;20086;-61
2021/07/01 10:35:35;;;;;;;4.97;2.22;;;26.90;98.80;;;;;;4188399;28;20058;-62
2021/07/01 10:37:36;;;;;;;4.53;2.75;;;26.90;99.00;;;;;;4187920;28;20495;-61